Terminal Aerodrome Forecast
Issued by NWS

Home | Current Version | Previous Version | Text Only | Print | Product List | Glossary On
Versions: 1 2 3 4 5 6 7 8 9 10 11 12 13 14 15 16 17 18 19 20 21 22 23 24 25 26
000
FTUS41 KGYX 220529
TAFLEB
TAF
KLEB 220529Z 2206/2306 27006KT 6SM -SHRA SCT012 BKN035
     FM221000 25008KT 3SM BR OVC005
     FM221300 28014G20KT P6SM BKN045
     FM230000 27006KT P6SM SCT050=

USA.gov is the U.S. government's official web portal to all federal, state and local government web resources and services.